createdAt,value
2023-07-29T00:05:48.990Z,1.20
2023-07-29T00:08:16.382Z,1.23
2023-07-29T00:10:43.642Z,1.90
2023-07-29T00:13:11.294Z,1.87
2023-07-29T00:15:38.783Z,1.63
2023-07-29T00:18:06.145Z,1.93
2023-07-29T00:20:33.831Z,2.50
2023-07-29T00:25:40.122Z,2.53
2023-07-29T00:28:07.192Z,2.93
2023-07-29T00:30:34.376Z,3.23
2023-07-29T00:33:01.749Z,3.30
2023-07-29T00:35:29.173Z,3.50
2023-07-29T00:37:56.685Z,3.23
2023-07-29T00:40:24.540Z,3.83
2023-07-29T00:42:53.386Z,3.67
2023-07-29T00:50:25.339Z,3.20
2023-07-29T00:52:52.852Z,3.47
2023-07-29T00:55:20.220Z,3.60
2023-07-29T00:57:48.906Z,3.47
2023-07-29T01:00:16.533Z,3.43
2023-07-29T01:02:44.577Z,3.57
2023-07-29T01:05:14.762Z,3.47
2023-07-29T01:10:32.721Z,3.07
2023-07-29T01:13:07.807Z,3.23
2023-07-29T01:15:44.768Z,3.43
2023-07-29T01:18:21.673Z,3.27
2023-07-29T01:20:52.796Z,2.87
2023-07-29T01:23:25.023Z,3.07
2023-07-29T01:25:52.052Z,3.37
2023-07-29T01:34:49.623Z,2.50
2023-07-29T01:37:21.453Z,3.40
2023-07-29T01:39:52.105Z,2.93
2023-07-29T01:42:19.780Z,3.80
2023-07-29T01:44:47.244Z,3.67
2023-07-29T01:47:15.317Z,3.80
2023-07-29T01:49:43.724Z,4.10
2023-07-29T01:58:34.366Z,4.00
2023-07-29T02:01:01.819Z,3.93
2023-07-29T02:03:29.322Z,3.77
2023-07-29T02:05:56.432Z,3.50
2023-07-29T02:08:24.278Z,2.90
2023-07-29T02:10:51.236Z,3.40
2023-07-29T02:13:18.370Z,2.83
2023-07-29T02:19:31.943Z,2.70
2023-07-29T02:21:59.922Z,2.77
2023-07-29T02:24:27.334Z,2.67
2023-07-29T02:26:55.312Z,3.43
2023-07-29T02:29:22.726Z,2.83
2023-07-29T02:31:50.482Z,2.73
2023-07-29T02:34:17.904Z,3.17
2023-07-29T02:44:28.282Z,2.90
2023-07-29T02:46:56.702Z,3.03
2023-07-29T02:49:26.555Z,3.60
2023-07-29T02:51:54.102Z,3.17
2023-07-29T02:54:21.772Z,3.70
2023-07-29T02:56:49.003Z,3.93
2023-07-29T02:59:16.174Z,4.27
2023-07-29T03:09:31.173Z,3.80
2023-07-29T03:11:59.503Z,3.67
2023-07-29T03:14:26.835Z,3.80
2023-07-29T03:16:54.332Z,4.70
2023-07-29T03:19:21.860Z,4.67
2023-07-29T03:21:48.772Z,4.77
2023-07-29T03:24:16.193Z,5.17
2023-07-29T03:26:46.591Z,5.87
2023-07-29T03:34:19.400Z,5.50
2023-07-29T03:36:48.162Z,5.03
2023-07-29T03:39:15.519Z,4.90
2023-07-29T03:41:42.799Z,4.93
2023-07-29T03:44:10.195Z,4.67
2023-07-29T03:46:37.704Z,4.00
2023-07-29T03:49:05.499Z,4.13
2023-07-29T03:59:42.050Z,5.27
2023-07-29T04:05:11.767Z,5.17
2023-07-29T04:07:40.190Z,5.27
2023-07-29T04:10:08.904Z,5.37
2023-07-29T04:12:36.343Z,5.53
2023-07-29T04:15:05.636Z,4.90
2023-07-29T04:21:39.483Z,4.53
2023-07-29T04:24:06.923Z,3.97
2023-07-29T04:26:36.895Z,4.80
2023-07-29T04:29:04.731Z,4.80
2023-07-29T04:31:32.302Z,4.27
2023-07-29T04:33:59.960Z,3.07
2023-07-29T04:36:27.553Z,3.50
2023-07-29T04:45:37.363Z,2.90
2023-07-29T04:48:05.393Z,2.70
2023-07-29T04:50:32.782Z,3.00
2023-07-29T04:53:00.585Z,2.97
2023-07-29T04:55:27.902Z,2.77
2023-07-29T04:57:55.310Z,2.60
2023-07-29T05:00:23.750Z,2.40
2023-07-29T05:02:54.028Z,2.40
2023-07-29T05:10:25.781Z,3.07
2023-07-29T05:12:52.797Z,2.93
2023-07-29T05:15:20.681Z,3.57
2023-07-29T05:17:48.216Z,3.57
2023-07-29T05:20:15.742Z,3.00
2023-07-29T05:22:43.344Z,2.97
2023-07-29T05:25:10.728Z,2.80
2023-07-29T05:35:25.052Z,2.37
2023-07-29T05:37:52.970Z,2.40
2023-07-29T05:40:21.311Z,2.03
2023-07-29T05:42:48.675Z,2.30
2023-07-29T05:45:16.279Z,2.23
2023-07-29T05:47:43.385Z,2.27
2023-07-29T05:50:11.210Z,1.93
2023-07-29T05:55:20.863Z,2.47
2023-07-29T05:57:48.202Z,2.13
2023-07-29T06:00:15.882Z,2.37
2023-07-29T06:02:43.411Z,2.20
2023-07-29T06:05:10.572Z,2.50
2023-07-29T06:07:38.693Z,2.20
2023-07-29T06:10:07.300Z,2.23
2023-07-29T06:16:03.933Z,2.87
2023-07-29T06:18:31.241Z,2.43
2023-07-29T06:20:58.952Z,2.33
2023-07-29T06:23:26.231Z,2.33
2023-07-29T06:25:53.622Z,2.43
2023-07-29T06:28:21.054Z,2.27
2023-07-29T06:30:51.161Z,2.20
2023-07-29T06:41:06.953Z,3.27
2023-07-29T06:43:34.393Z,2.63
2023-07-29T06:46:02.061Z,2.67
2023-07-29T06:48:29.592Z,2.20
2023-07-29T06:51:01.173Z,1.97
2023-07-29T06:53:28.574Z,1.83
2023-07-29T06:55:56.263Z,2.57
2023-07-29T07:04:47.625Z,2.00
2023-07-29T07:07:15.112Z,2.37
2023-07-29T07:09:42.480Z,1.93
2023-07-29T07:12:14.695Z,2.13
2023-07-29T07:14:42.239Z,1.90
2023-07-29T07:17:11.531Z,1.60
2023-07-29T07:19:41.360Z,2.23
2023-07-29T07:26:14.619Z,1.80
2023-07-29T07:28:41.856Z,1.83
2023-07-29T07:31:09.222Z,1.87
2023-07-29T07:33:36.589Z,1.93
2023-07-29T07:36:04.276Z,1.37
2023-07-29T07:38:31.624Z,2.30
2023-07-29T07:40:59.041Z,1.83
2023-07-29T07:43:27.863Z,1.67
2023-07-29T07:51:00.752Z,1.90
2023-07-29T07:53:28.101Z,1.70
2023-07-29T07:55:55.416Z,1.80
2023-07-29T07:58:22.780Z,1.87
2023-07-29T08:00:49.992Z,1.87
2023-07-29T08:03:17.570Z,2.27
2023-07-29T08:05:44.844Z,2.13
2023-07-29T08:15:59.419Z,1.93
2023-07-29T08:18:26.574Z,2.10
2023-07-29T08:20:54.853Z,2.43
2023-07-29T08:23:22.378Z,2.10
2023-07-29T08:25:54.420Z,1.80
2023-07-29T08:28:22.475Z,1.90
2023-07-29T08:30:50.573Z,1.90
2023-07-29T08:37:15.670Z,1.63
2023-07-29T08:39:43.441Z,1.70
2023-07-29T08:42:12.735Z,1.90
2023-07-29T08:44:43.760Z,1.20
2023-07-29T08:47:10.927Z,1.97
2023-07-29T08:50:09.160Z,1.30
2023-07-29T08:52:38.689Z,1.77
2023-07-29T09:00:12.645Z,1.30
2023-07-29T09:02:40.265Z,1.10
2023-07-29T09:05:09.214Z,1.30
2023-07-29T09:07:38.719Z,1.77
2023-07-29T09:10:09.972Z,2.47
2023-07-29T09:12:37.123Z,1.20
2023-07-29T09:15:05.249Z,1.37
2023-07-29T09:20:14.373Z,1.13
2023-07-29T09:22:41.524Z,1.30
2023-07-29T09:25:09.480Z,1.30
2023-07-29T09:27:40.225Z,1.20
2023-07-29T09:30:16.183Z,0.87
2023-07-29T09:32:43.745Z,1.10
2023-07-29T09:35:13.842Z,1.10
2023-07-29T09:37:41.832Z,1.20
2023-07-29T09:45:21.624Z,1.27
2023-07-29T09:47:49.900Z,1.10
2023-07-29T09:50:17.742Z,1.13
2023-07-29T09:52:46.612Z,1.20
2023-07-29T09:55:14.828Z,0.93
2023-07-29T09:57:42.945Z,1.20
2023-07-29T10:00:15.653Z,1.07
2023-07-29T10:21:07.651Z,1.10
2023-07-29T10:23:40.978Z,1.20
2023-07-29T10:26:12.412Z,1.27
2023-07-29T10:28:46.873Z,1.00
2023-07-29T10:31:16.604Z,1.20
2023-07-29T10:33:45.188Z,1.40
2023-07-29T10:36:14.721Z,1.30
2023-07-29T10:43:48.578Z,0.93
2023-07-29T10:46:21.188Z,1.20
2023-07-29T10:48:56.367Z,1.20
2023-07-29T10:51:25.716Z,0.87
2023-07-29T10:53:55.998Z,1.13
2023-07-29T10:56:29.615Z,1.00
2023-07-29T10:59:00.485Z,1.20
2023-07-29T11:04:51.884Z,1.87
2023-07-29T11:07:58.942Z,1.30
2023-07-29T11:10:40.981Z,0.90
2023-07-29T11:13:38.474Z,1.40
2023-07-29T11:16:12.364Z,1.40
2023-07-29T11:19:00.900Z,1.27
2023-07-29T11:21:29.591Z,1.43
2023-07-29T11:24:09.252Z,1.33
2023-07-29T11:27:01.055Z,1.00
2023-07-29T11:29:28.562Z,1.60
2023-07-29T11:35:41.662Z,1.07
2023-07-29T11:38:09.450Z,1.50
2023-07-29T11:40:37.232Z,1.30
2023-07-29T11:43:06.154Z,1.23
2023-07-29T11:45:46.867Z,1.20
2023-07-29T11:48:20.027Z,1.10
2023-07-29T11:50:48.767Z,1.10
2023-07-29T11:56:46.870Z,1.60
2023-07-29T11:59:14.015Z,1.20
2023-07-29T12:01:41.674Z,1.23
2023-07-29T12:04:09.741Z,0.80
2023-07-29T12:06:39.097Z,1.20
2023-07-29T12:09:08.363Z,1.40
2023-07-29T12:11:35.913Z,1.20
2023-07-29T12:16:45.291Z,0.80
2023-07-29T12:19:14.087Z,1.77
2023-07-29T12:21:43.328Z,1.67
2023-07-29T12:24:11.167Z,1.00
2023-07-29T12:26:38.627Z,1.23
2023-07-29T12:29:14.512Z,1.20
2023-07-29T12:31:42.583Z,1.20
2023-07-29T12:39:26.313Z,1.10
2023-07-29T12:41:55.067Z,1.87
2023-07-29T12:44:25.974Z,1.50
2023-07-29T12:46:53.513Z,1.50
2023-07-29T12:49:22.134Z,1.30
2023-07-29T12:51:51.219Z,1.40
2023-07-29T12:54:18.722Z,1.57
2023-07-29T13:01:46.688Z,1.40
2023-07-29T13:04:14.627Z,1.13
2023-07-29T13:06:42.380Z,1.43
2023-07-29T13:09:10.924Z,0.90
2023-07-29T13:11:38.493Z,1.60
2023-07-29T13:14:05.864Z,1.17
2023-07-29T13:16:33.329Z,1.10
2023-07-29T13:24:06.986Z,1.57
2023-07-29T13:26:34.814Z,1.40
2023-07-29T13:29:06.162Z,1.10
2023-07-29T13:31:35.297Z,1.40
2023-07-29T13:34:05.424Z,1.33
2023-07-29T13:36:33.326Z,1.40
2023-07-29T13:39:00.504Z,1.27
2023-07-29T13:46:32.276Z,1.30
2023-07-29T13:48:59.855Z,1.47
2023-07-29T13:51:27.725Z,1.23
2023-07-29T13:53:57.248Z,1.30
2023-07-29T13:56:28.190Z,1.50
2023-07-29T13:58:55.977Z,1.43
2023-07-29T14:05:48.215Z,1.30
2023-07-29T14:08:15.956Z,1.57
2023-07-29T14:10:46.374Z,1.33
2023-07-29T14:13:13.597Z,1.27
2023-07-29T14:15:40.943Z,1.63
2023-07-29T14:18:08.775Z,1.67
2023-07-29T14:20:36.344Z,1.40
2023-07-29T14:28:04.584Z,1.40
2023-07-29T14:30:32.140Z,1.60
2023-07-29T14:32:59.996Z,1.63
2023-07-29T14:35:28.164Z,1.80
2023-07-29T14:37:55.939Z,1.47
2023-07-29T14:40:23.374Z,1.50
2023-07-29T14:42:51.288Z,1.80
2023-07-29T14:50:44.256Z,2.10
2023-07-29T14:53:12.745Z,2.00
2023-07-29T14:55:40.976Z,1.47
2023-07-29T14:58:08.830Z,1.53
2023-07-29T15:00:36.560Z,2.30
2023-07-29T15:03:04.597Z,1.53
2023-07-29T15:05:33.690Z,1.20
2023-07-29T15:11:59.511Z,1.50
2023-07-29T15:14:27.248Z,1.30
2023-07-29T15:16:55.476Z,1.30
2023-07-29T15:19:23.197Z,1.40
2023-07-29T15:21:52.754Z,1.60
2023-07-29T15:24:20.275Z,1.60
2023-07-29T15:26:47.990Z,1.20
2023-07-29T15:32:00.208Z,1.50
2023-07-29T15:34:32.137Z,1.60
2023-07-29T15:37:00.026Z,1.43
2023-07-29T15:39:27.638Z,1.43
2023-07-29T15:41:55.377Z,1.27
2023-07-29T15:44:23.997Z,1.50
2023-07-29T15:46:53.289Z,1.50
2023-07-29T15:54:27.676Z,1.50
2023-07-29T15:56:55.225Z,1.20
2023-07-29T15:59:22.398Z,1.20
2023-07-29T16:01:50.622Z,1.20
2023-07-29T16:04:18.417Z,1.73
2023-07-29T16:06:45.989Z,1.27
2023-07-29T16:09:13.728Z,1.67
2023-07-29T16:16:45.811Z,1.50
2023-07-29T16:19:13.280Z,1.23
2023-07-29T16:21:40.821Z,1.60
2023-07-29T16:24:08.225Z,1.30
2023-07-29T16:26:35.665Z,1.17
2023-07-29T16:29:04.889Z,1.57
2023-07-29T16:31:32.326Z,1.73
2023-07-29T16:39:00.116Z,1.20
2023-07-29T16:42:01.862Z,1.60
2023-07-29T16:44:25.986Z,1.57
2023-07-29T16:46:55.357Z,1.60
2023-07-29T16:49:24.587Z,1.50
2023-07-29T16:51:52.063Z,1.50
2023-07-29T16:54:21.419Z,1.27
2023-07-29T17:01:54.672Z,1.27
2023-07-29T17:04:22.916Z,1.30
2023-07-29T17:06:51.996Z,1.30
2023-07-29T17:09:19.778Z,1.40
2023-07-29T17:11:49.184Z,1.30
2023-07-29T17:14:19.707Z,1.47
2023-07-29T17:16:46.728Z,1.90
2023-07-29T17:34:44.116Z,1.60
2023-07-29T17:37:11.689Z,1.53
2023-07-29T17:39:41.807Z,1.30
2023-07-29T17:42:10.122Z,1.30
2023-07-29T17:44:37.616Z,1.40
2023-07-29T17:47:05.709Z,1.33
2023-07-29T17:49:33.057Z,1.40
2023-07-29T17:56:43.909Z,1.73
2023-07-29T17:59:15.485Z,1.40
2023-07-29T18:01:43.641Z,1.43
2023-07-29T18:04:11.288Z,1.63
2023-07-29T18:06:39.105Z,1.50
2023-07-29T18:09:06.380Z,1.37
2023-07-29T18:11:36.355Z,1.30
2023-07-29T18:16:44.445Z,1.70
2023-07-29T18:19:12.415Z,1.53
2023-07-29T18:21:40.273Z,1.73
2023-07-29T18:24:07.856Z,2.10
2023-07-29T18:26:35.605Z,1.63
2023-07-29T18:29:03.620Z,1.50
2023-07-29T18:31:34.500Z,1.83
2023-07-29T18:36:45.851Z,1.57
2023-07-29T18:39:13.778Z,2.13
2023-07-29T18:41:41.440Z,1.90
2023-07-29T18:44:08.645Z,1.90
2023-07-29T18:46:36.619Z,1.90
2023-07-29T18:49:06.767Z,1.77
2023-07-29T18:51:53.618Z,1.40
2023-07-29T18:58:39.298Z,1.77
2023-07-29T19:01:06.346Z,1.80
2023-07-29T19:03:34.175Z,2.10
2023-07-29T19:06:02.041Z,1.90
2023-07-29T19:08:29.568Z,2.67
2023-07-29T19:10:57.298Z,1.97
2023-07-29T19:13:27.855Z,1.70
2023-07-29T19:20:51.684Z,1.60
2023-07-29T19:23:21.447Z,1.60
2023-07-29T19:25:49.405Z,1.80
2023-07-29T19:28:16.870Z,1.93
2023-07-29T19:30:44.968Z,1.30
2023-07-29T19:33:12.288Z,2.17
2023-07-29T19:35:40.418Z,1.60
2023-07-29T19:43:16.499Z,1.43
2023-07-29T19:46:05.573Z,1.73
2023-07-29T19:48:35.552Z,1.80
2023-07-29T19:51:03.134Z,1.63
2023-07-29T19:53:31.376Z,1.40
2023-07-29T19:55:59.689Z,1.50
2023-07-29T19:58:31.148Z,1.20
2023-07-29T20:06:04.737Z,1.90
2023-07-29T20:08:32.178Z,1.53
2023-07-29T20:10:59.846Z,1.57
2023-07-29T20:13:29.248Z,1.40
2023-07-29T20:15:56.900Z,1.10
2023-07-29T20:18:24.564Z,1.60
2023-07-29T20:20:54.237Z,1.50
2023-07-29T20:28:25.946Z,1.17
2023-07-29T20:30:58.056Z,1.27
2023-07-29T20:33:26.059Z,1.67
2023-07-29T20:35:56.917Z,1.50
2023-07-29T20:38:24.645Z,1.63
2023-07-29T20:40:53.778Z,1.63
2023-07-29T20:43:21.676Z,1.40
2023-07-29T20:48:32.066Z,1.40
2023-07-29T20:51:03.292Z,1.60
2023-07-29T20:53:31.182Z,1.33
2023-07-29T20:55:58.604Z,1.30
2023-07-29T20:58:26.129Z,1.60
2023-07-29T21:00:56.101Z,1.63
2023-07-29T21:03:23.987Z,1.40
2023-07-29T21:10:55.544Z,1.70
2023-07-29T21:13:23.397Z,1.53
2023-07-29T21:15:51.061Z,2.00
2023-07-29T21:18:19.158Z,1.77
2023-07-29T21:20:46.964Z,1.80
2023-07-29T21:23:15.159Z,1.63
2023-07-29T21:25:46.396Z,1.90
2023-07-29T21:33:22.168Z,1.93
2023-07-29T21:35:50.297Z,2.10
2023-07-29T21:38:29.494Z,1.50
2023-07-29T21:40:58.170Z,1.83
2023-07-29T21:43:26.169Z,1.87
2023-07-29T21:45:56.988Z,1.70
2023-07-29T21:48:26.416Z,1.63
2023-07-29T21:56:01.821Z,1.80
2023-07-29T21:58:29.428Z,1.50
2023-07-29T22:00:57.039Z,1.40
2023-07-29T22:03:24.600Z,1.63
2023-07-29T22:05:52.460Z,1.53
2023-07-29T22:08:19.888Z,1.60
2023-07-29T22:10:47.062Z,1.40
2023-07-29T22:18:19.638Z,1.20
2023-07-29T22:20:54.136Z,1.10
2023-07-29T22:23:23.767Z,1.13
2023-07-29T22:25:58.995Z,1.30
2023-07-29T22:28:27.170Z,1.10
2023-07-29T22:30:54.677Z,0.90
2023-07-29T22:33:23.534Z,1.43
2023-07-29T22:38:34.606Z,1.30
2023-07-29T22:41:01.974Z,1.20
2023-07-29T22:43:29.224Z,1.23
2023-07-29T22:45:57.749Z,0.83
2023-07-29T22:48:27.056Z,1.40
2023-07-29T22:50:54.905Z,0.97
2023-07-29T22:53:22.170Z,1.07
2023-07-29T22:58:28.295Z,1.23
2023-07-29T23:00:57.313Z,1.07
2023-07-29T23:03:26.437Z,1.47
2023-07-29T23:05:54.433Z,1.30
2023-07-29T23:08:22.170Z,1.30
2023-07-29T23:10:49.543Z,1.30
2023-07-29T23:13:16.958Z,1.30
2023-07-29T23:18:40.034Z,1.00
2023-07-29T23:21:08.242Z,1.30
2023-07-29T23:23:35.537Z,1.30
2023-07-29T23:26:03.153Z,1.40
2023-07-29T23:28:30.439Z,1.10
2023-07-29T23:30:58.482Z,1.23
2023-07-29T23:33:26.382Z,1.83
2023-07-29T23:35:59.936Z,1.50
2023-07-29T23:43:32.944Z,1.90
2023-07-29T23:46:00.693Z,1.60
2023-07-29T23:48:28.188Z,1.57
2023-07-29T23:50:55.598Z,1.67
2023-07-29T23:53:22.656Z,1.53
2023-07-29T23:55:50.055Z,1.47
2023-07-29T23:58:17.477Z,2.10
